sensor_id;sensor_type;location;lat;lon;timestamp;P1;durP1;ratioP1;P2;durP2;ratioP2
14181;SDS011;7171;50.936;6.764;2022-07-11T00:01:10;1.50;;;1.40;;
14181;SDS011;7171;50.936;6.764;2022-07-11T00:03:39;1.70;;;1.60;;
14181;SDS011;7171;50.936;6.764;2022-07-11T00:06:05;1.58;;;1.48;;
14181;SDS011;7171;50.936;6.764;2022-07-11T00:08:32;1.52;;;1.23;;
14181;SDS011;7171;50.936;6.764;2022-07-11T00:10:59;2.17;;;1.45;;
14181;SDS011;7171;50.936;6.764;2022-07-11T00:13:26;1.90;;;1.30;;
14181;SDS011;7171;50.936;6.764;2022-07-11T00:15:52;1.40;;;1.20;;
14181;SDS011;7171;50.936;6.764;2022-07-11T00:18:19;2.13;;;1.77;;
14181;SDS011;7171;50.936;6.764;2022-07-11T00:20:50;2.40;;;1.50;;
14181;SDS011;7171;50.936;6.764;2022-07-11T00:23:16;1.65;;;1.33;;
14181;SDS011;7171;50.936;6.764;2022-07-11T00:25:44;1.30;;;1.20;;
14181;SDS011;7171;50.936;6.764;2022-07-11T00:28:10;1.70;;;1.40;;
14181;SDS011;7171;50.936;6.764;2022-07-11T00:30:37;1.42;;;1.33;;
14181;SDS011;7171;50.936;6.764;2022-07-11T00:33:04;1.50;;;1.40;;
14181;SDS011;7171;50.936;6.764;2022-07-11T00:35:31;1.33;;;1.23;;
14181;SDS011;7171;50.936;6.764;2022-07-11T00:37:59;1.67;;;1.55;;
14181;SDS011;7171;50.936;6.764;2022-07-11T00:40:25;1.48;;;1.35;;
14181;SDS011;7171;50.936;6.764;2022-07-11T00:42:52;1.83;;;1.20;;
14181;SDS011;7171;50.936;6.764;2022-07-11T00:45:19;1.25;;;1.15;;
14181;SDS011;7171;50.936;6.764;2022-07-11T00:47:46;1.40;;;1.30;;
14181;SDS011;7171;50.936;6.764;2022-07-11T00:50:13;1.63;;;1.50;;
14181;SDS011;7171;50.936;6.764;2022-07-11T00:52:40;1.30;;;1.20;;
14181;SDS011;7171;50.936;6.764;2022-07-11T00:55:09;1.55;;;1.17;;
14181;SDS011;7171;50.936;6.764;2022-07-11T00:57:37;1.73;;;1.58;;
14181;SDS011;7171;50.936;6.764;2022-07-11T01:00:04;1.80;;;1.25;;
14181;SDS011;7171;50.936;6.764;2022-07-11T01:02:32;1.15;;;1.05;;
14181;SDS011;7171;50.936;6.764;2022-07-11T01:04:59;1.83;;;1.60;;
14181;SDS011;7171;50.936;6.764;2022-07-11T01:07:26;1.55;;;1.45;;
14181;SDS011;7171;50.936;6.764;2022-07-11T01:09:53;1.90;;;1.58;;
14181;SDS011;7171;50.936;6.764;2022-07-11T01:12:21;2.45;;;1.55;;
14181;SDS011;7171;50.936;6.764;2022-07-11T01:14:51;1.85;;;1.38;;
14181;SDS011;7171;50.936;6.764;2022-07-11T01:17:18;1.83;;;1.33;;
14181;SDS011;7171;50.936;6.764;2022-07-11T01:19:45;1.77;;;1.33;;
14181;SDS011;7171;50.936;6.764;2022-07-11T01:22:12;1.63;;;1.33;;
14181;SDS011;7171;50.936;6.764;2022-07-11T01:24:42;1.60;;;1.50;;
14181;SDS011;7171;50.936;6.764;2022-07-11T01:27:09;1.75;;;1.30;;
14181;SDS011;7171;50.936;6.764;2022-07-11T01:29:37;1.52;;;1.42;;
14181;SDS011;7171;50.936;6.764;2022-07-11T01:32:05;1.63;;;1.52;;
14181;SDS011;7171;50.936;6.764;2022-07-11T01:34:32;2.30;;;1.92;;
14181;SDS011;7171;50.936;6.764;2022-07-11T01:36:59;1.40;;;1.30;;
14181;SDS011;7171;50.936;6.764;2022-07-11T01:39:26;2.05;;;1.80;;
14181;SDS011;7171;50.936;6.764;2022-07-11T01:41:56;1.60;;;1.50;;
14181;SDS011;7171;50.936;6.764;2022-07-11T01:44:22;2.72;;;1.60;;
14181;SDS011;7171;50.936;6.764;2022-07-11T01:46:49;1.67;;;1.58;;
14181;SDS011;7171;50.936;6.764;2022-07-11T01:49:16;1.80;;;1.67;;
14181;SDS011;7171;50.936;6.764;2022-07-11T01:51:43;2.17;;;1.70;;
14181;SDS011;7171;50.936;6.764;2022-07-11T01:54:10;1.52;;;1.42;;
14181;SDS011;7171;50.936;6.764;2022-07-11T01:56:37;3.08;;;1.52;;
14181;SDS011;7171;50.936;6.764;2022-07-11T01:59:05;3.30;;;1.67;;
14181;SDS011;7171;50.936;6.764;2022-07-11T02:01:32;1.83;;;1.65;;
14181;SDS011;7171;50.936;6.764;2022-07-11T02:03:59;2.45;;;1.67;;
14181;SDS011;7171;50.936;6.764;2022-07-11T02:06:26;1.98;;;1.70;;
14181;SDS011;7171;50.936;6.764;2022-07-11T02:08:52;2.03;;;1.70;;
14181;SDS011;7171;50.936;6.764;2022-07-11T02:11:19;1.83;;;1.67;;
14181;SDS011;7171;50.936;6.764;2022-07-11T02:13:46;2.65;;;1.65;;
14181;SDS011;7171;50.936;6.764;2022-07-11T02:16:14;1.45;;;1.35;;
14181;SDS011;7171;50.936;6.764;2022-07-11T02:18:41;2.20;;;1.58;;
14181;SDS011;7171;50.936;6.764;2022-07-11T02:21:08;1.63;;;1.40;;
14181;SDS011;7171;50.936;6.764;2022-07-11T02:23:37;1.73;;;1.60;;
14181;SDS011;7171;50.936;6.764;2022-07-11T02:26:04;1.50;;;1.40;;
14181;SDS011;7171;50.936;6.764;2022-07-11T02:28:31;2.03;;;1.30;;
14181;SDS011;7171;50.936;6.764;2022-07-11T02:30:59;2.08;;;1.73;;
14181;SDS011;7171;50.936;6.764;2022-07-11T02:33:27;2.00;;;1.75;;
14181;SDS011;7171;50.936;6.764;2022-07-11T02:35:54;2.00;;;1.85;;
14181;SDS011;7171;50.936;6.764;2022-07-11T02:38:21;1.67;;;1.58;;
14181;SDS011;7171;50.936;6.764;2022-07-11T02:40:47;1.80;;;1.70;;
14181;SDS011;7171;50.936;6.764;2022-07-11T02:43:14;3.30;;;1.70;;
14181;SDS011;7171;50.936;6.764;2022-07-11T02:45:41;1.58;;;1.48;;
14181;SDS011;7171;50.936;6.764;2022-07-11T02:48:08;2.50;;;1.80;;
14181;SDS011;7171;50.936;6.764;2022-07-11T02:50:36;1.88;;;1.52;;
14181;SDS011;7171;50.936;6.764;2022-07-11T02:53:02;2.97;;;2.00;;
14181;SDS011;7171;50.936;6.764;2022-07-11T02:55:29;1.67;;;1.58;;
14181;SDS011;7171;50.936;6.764;2022-07-11T02:57:56;1.52;;;1.25;;
14181;SDS011;7171;50.936;6.764;2022-07-11T03:00:24;1.90;;;1.80;;
14181;SDS011;7171;50.936;6.764;2022-07-11T03:02:51;2.33;;;2.13;;
14181;SDS011;7171;50.936;6.764;2022-07-11T03:05:18;3.33;;;1.80;;
14181;SDS011;7171;50.936;6.764;2022-07-11T03:07:46;2.17;;;1.90;;
14181;SDS011;7171;50.936;6.764;2022-07-11T03:10:13;1.88;;;1.67;;
14181;SDS011;7171;50.936;6.764;2022-07-11T03:12:40;2.65;;;1.88;;
14181;SDS011;7171;50.936;6.764;2022-07-11T03:15:08;3.20;;;1.75;;
14181;SDS011;7171;50.936;6.764;2022-07-11T03:17:36;1.65;;;1.55;;
14181;SDS011;7171;50.936;6.764;2022-07-11T03:20:03;3.47;;;1.98;;
14181;SDS011;7171;50.936;6.764;2022-07-11T03:22:31;2.05;;;1.77;;
14181;SDS011;7171;50.936;6.764;2022-07-11T03:24:59;3.22;;;2.00;;
14181;SDS011;7171;50.936;6.764;2022-07-11T03:27:28;2.08;;;1.75;;
14181;SDS011;7171;50.936;6.764;2022-07-11T03:29:55;3.45;;;1.92;;
14181;SDS011;7171;50.936;6.764;2022-07-11T03:32:22;3.05;;;1.55;;
14181;SDS011;7171;50.936;6.764;2022-07-11T03:34:49;1.83;;;1.70;;
14181;SDS011;7171;50.936;6.764;2022-07-11T03:37:30;2.28;;;1.95;;
14181;SDS011;7171;50.936;6.764;2022-07-11T03:39:56;2.28;;;1.90;;
14181;SDS011;7171;50.936;6.764;2022-07-11T03:42:25;2.00;;;1.88;;
14181;SDS011;7171;50.936;6.764;2022-07-11T03:44:52;1.63;;;1.52;;
14181;SDS011;7171;50.936;6.764;2022-07-11T03:47:19;1.83;;;1.73;;
14181;SDS011;7171;50.936;6.764;2022-07-11T03:49:46;2.65;;;1.83;;
14181;SDS011;7171;50.936;6.764;2022-07-11T03:52:13;2.33;;;1.63;;
14181;SDS011;7171;50.936;6.764;2022-07-11T03:54:40;4.53;;;2.05;;
14181;SDS011;7171;50.936;6.764;2022-07-11T03:57:09;1.95;;;1.85;;
14181;SDS011;7171;50.936;6.764;2022-07-11T03:59:36;2.00;;;1.80;;
14181;SDS011;7171;50.936;6.764;2022-07-11T04:02:03;2.13;;;1.65;;
14181;SDS011;7171;50.936;6.764;2022-07-11T04:04:30;2.40;;;2.00;;
14181;SDS011;7171;50.936;6.764;2022-07-11T04:06:57;2.55;;;1.90;;
14181;SDS011;7171;50.936;6.764;2022-07-11T04:09:24;2.47;;;1.73;;
14181;SDS011;7171;50.936;6.764;2022-07-11T04:11:51;2.03;;;1.83;;
14181;SDS011;7171;50.936;6.764;2022-07-11T04:14:19;1.92;;;1.73;;
14181;SDS011;7171;50.936;6.764;2022-07-11T04:16:46;1.90;;;1.70;;
14181;SDS011;7171;50.936;6.764;2022-07-11T04:19:13;2.15;;;1.95;;
14181;SDS011;7171;50.936;6.764;2022-07-11T04:21:40;1.92;;;1.70;;
14181;SDS011;7171;50.936;6.764;2022-07-11T04:24:07;2.72;;;2.03;;
14181;SDS011;7171;50.936;6.764;2022-07-11T04:26:33;1.77;;;1.55;;
14181;SDS011;7171;50.936;6.764;2022-07-11T04:29:00;1.70;;;1.60;;
14181;SDS011;7171;50.936;6.764;2022-07-11T04:31:28;2.15;;;1.90;;
14181;SDS011;7171;50.936;6.764;2022-07-11T04:33:55;2.20;;;1.88;;
14181;SDS011;7171;50.936;6.764;2022-07-11T04:36:22;2.17;;;1.98;;
14181;SDS011;7171;50.936;6.764;2022-07-11T04:38:49;2.38;;;1.80;;
14181;SDS011;7171;50.936;6.764;2022-07-11T04:41:15;1.60;;;1.50;;
14181;SDS011;7171;50.936;6.764;2022-07-11T04:43:42;1.75;;;1.63;;
14181;SDS011;7171;50.936;6.764;2022-07-11T04:46:09;1.60;;;1.50;;
14181;SDS011;7171;50.936;6.764;2022-07-11T04:48:37;1.95;;;1.58;;
14181;SDS011;7171;50.936;6.764;2022-07-11T04:51:04;3.15;;;2.10;;
14181;SDS011;7171;50.936;6.764;2022-07-11T04:53:31;2.67;;;1.50;;
14181;SDS011;7171;50.936;6.764;2022-07-11T04:55:58;1.70;;;1.58;;
14181;SDS011;7171;50.936;6.764;2022-07-11T04:58:25;1.30;;;1.20;;
14181;SDS011;7171;50.936;6.764;2022-07-11T05:00:52;3.53;;;1.30;;
14181;SDS011;7171;50.936;6.764;2022-07-11T05:03:19;2.10;;;1.60;;
14181;SDS011;7171;50.936;6.764;2022-07-11T05:05:47;2.03;;;1.30;;
14181;SDS011;7171;50.936;6.764;2022-07-11T05:08:14;1.88;;;1.55;;
14181;SDS011;7171;50.936;6.764;2022-07-11T05:10:40;1.60;;;1.50;;
14181;SDS011;7171;50.936;6.764;2022-07-11T05:13:07;1.60;;;1.50;;
14181;SDS011;7171;50.936;6.764;2022-07-11T05:15:34;1.60;;;1.50;;
14181;SDS011;7171;50.936;6.764;2022-07-11T05:18:01;1.73;;;1.50;;
14181;SDS011;7171;50.936;6.764;2022-07-11T05:20:28;1.48;;;1.38;;
14181;SDS011;7171;50.936;6.764;2022-07-11T05:22:56;1.13;;;1.02;;
14181;SDS011;7171;50.936;6.764;2022-07-11T05:25:23;1.60;;;1.30;;
14181;SDS011;7171;50.936;6.764;2022-07-11T05:27:50;1.63;;;1.52;;
14181;SDS011;7171;50.936;6.764;2022-07-11T05:30:17;1.58;;;1.48;;
14181;SDS011;7171;50.936;6.764;2022-07-11T05:32:44;1.55;;;1.45;;
14181;SDS011;7171;50.936;6.764;2022-07-11T05:35:11;1.42;;;1.30;;
14181;SDS011;7171;50.936;6.764;2022-07-11T05:37:38;2.10;;;1.58;;
14181;SDS011;7171;50.936;6.764;2022-07-11T05:40:07;1.88;;;1.20;;
14181;SDS011;7171;50.936;6.764;2022-07-11T05:42:34;1.30;;;1.20;;
14181;SDS011;7171;50.936;6.764;2022-07-11T05:45:01;2.00;;;1.45;;
14181;SDS011;7171;50.936;6.764;2022-07-11T05:47:28;1.77;;;1.25;;
14181;SDS011;7171;50.936;6.764;2022-07-11T05:49:55;2.35;;;1.52;;
14181;SDS011;7171;50.936;6.764;2022-07-11T05:52:21;1.48;;;1.15;;
14181;SDS011;7171;50.936;6.764;2022-07-11T05:54:48;1.40;;;1.30;;
14181;SDS011;7171;50.936;6.764;2022-07-11T05:57:16;1.60;;;1.50;;
14181;SDS011;7171;50.936;6.764;2022-07-11T05:59:43;1.02;;;1.00;;
14181;SDS011;7171;50.936;6.764;2022-07-11T06:02:11;1.17;;;1.08;;
14181;SDS011;7171;50.936;6.764;2022-07-11T06:04:37;1.40;;;1.30;;
14181;SDS011;7171;50.936;6.764;2022-07-11T06:07:04;1.67;;;1.30;;
14181;SDS011;7171;50.936;6.764;2022-07-11T06:09:32;1.30;;;1.20;;
14181;SDS011;7171;50.936;6.764;2022-07-11T06:11:57;1.70;;;1.48;;
14181;SDS011;7171;50.936;6.764;2022-07-11T06:14:26;3.58;;;1.40;;
14181;SDS011;7171;50.936;6.764;2022-07-11T06:16:52;1.40;;;1.30;;
14181;SDS011;7171;50.936;6.764;2022-07-11T06:19:19;2.30;;;1.50;;
14181;SDS011;7171;50.936;6.764;2022-07-11T06:21:46;1.52;;;1.33;;
14181;SDS011;7171;50.936;6.764;2022-07-11T06:24:13;1.30;;;1.20;;
14181;SDS011;7171;50.936;6.764;2022-07-11T06:26:40;1.98;;;1.35;;
14181;SDS011;7171;50.936;6.764;2022-07-11T06:29:06;1.60;;;1.50;;
14181;SDS011;7171;50.936;6.764;2022-07-11T06:31:35;1.83;;;1.70;;
14181;SDS011;7171;50.936;6.764;2022-07-11T06:34:02;2.05;;;1.70;;
14181;SDS011;7171;50.936;6.764;2022-07-11T06:36:29;1.95;;;1.45;;
14181;SDS011;7171;50.936;6.764;2022-07-11T06:38:56;1.52;;;1.23;;
14181;SDS011;7171;50.936;6.764;2022-07-11T06:41:23;2.20;;;1.70;;
14181;SDS011;7171;50.936;6.764;2022-07-11T06:43:49;1.90;;;1.60;;
14181;SDS011;7171;50.936;6.764;2022-07-11T06:46:16;1.98;;;1.77;;
14181;SDS011;7171;50.936;6.764;2022-07-11T06:48:45;2.45;;;2.13;;
14181;SDS011;7171;50.936;6.764;2022-07-11T06:51:11;3.25;;;2.58;;
14181;SDS011;7171;50.936;6.764;2022-07-11T06:53:38;3.03;;;2.70;;
14181;SDS011;7171;50.936;6.764;2022-07-11T06:56:05;4.13;;;2.40;;
14181;SDS011;7171;50.936;6.764;2022-07-11T06:58:32;2.53;;;2.08;;
14181;SDS011;7171;50.936;6.764;2022-07-11T07:00:59;1.73;;;1.63;;
14181;SDS011;7171;50.936;6.764;2022-07-11T07:03:27;2.28;;;2.08;;
14181;SDS011;7171;50.936;6.764;2022-07-11T07:05:56;1.88;;;1.70;;
14181;SDS011;7171;50.936;6.764;2022-07-11T07:08:24;3.25;;;1.80;;
14181;SDS011;7171;50.936;6.764;2022-07-11T07:10:52;2.20;;;1.67;;
14181;SDS011;7171;50.936;6.764;2022-07-11T07:13:20;1.40;;;1.30;;
14181;SDS011;7171;50.936;6.764;2022-07-11T07:15:50;1.90;;;1.63;;
14181;SDS011;7171;50.936;6.764;2022-07-11T07:18:18;2.38;;;1.48;;
14181;SDS011;7171;50.936;6.764;2022-07-11T07:20:45;1.23;;;1.13;;
14181;SDS011;7171;50.936;6.764;2022-07-11T07:23:14;1.30;;;1.20;;
14181;SDS011;7171;50.936;6.764;2022-07-11T07:25:41;1.25;;;1.02;;
14181;SDS011;7171;50.936;6.764;2022-07-11T07:28:09;1.60;;;1.50;;
14181;SDS011;7171;50.936;6.764;2022-07-11T07:30:35;1.38;;;1.27;;
14181;SDS011;7171;50.936;6.764;2022-07-11T07:33:02;2.40;;;1.98;;
14181;SDS011;7171;50.936;6.764;2022-07-11T07:35:29;1.98;;;1.77;;
14181;SDS011;7171;50.936;6.764;2022-07-11T07:37:56;1.50;;;1.40;;
14181;SDS011;7171;50.936;6.764;2022-07-11T07:40:26;2.00;;;1.52;;
14181;SDS011;7171;50.936;6.764;2022-07-11T07:42:53;2.25;;;1.48;;
14181;SDS011;7171;50.936;6.764;2022-07-11T07:45:20;1.65;;;1.50;;
14181;SDS011;7171;50.936;6.764;2022-07-11T07:47:47;1.58;;;1.48;;
14181;SDS011;7171;50.936;6.764;2022-07-11T07:50:15;1.73;;;1.38;;
14181;SDS011;7171;50.936;6.764;2022-07-11T07:52:41;1.27;;;1.17;;
14181;SDS011;7171;50.936;6.764;2022-07-11T07:55:08;1.35;;;1.25;;
14181;SDS011;7171;50.936;6.764;2022-07-11T07:57:36;1.15;;;1.08;;
14181;SDS011;7171;50.936;6.764;2022-07-11T08:00:03;1.42;;;1.33;;
14181;SDS011;7171;50.936;6.764;2022-07-11T08:02:48;2.65;;;1.35;;
14181;SDS011;7171;50.936;6.764;2022-07-11T08:05:16;1.92;;;1.33;;
14181;SDS011;7171;50.936;6.764;2022-07-11T08:07:42;4.53;;;1.40;;
14181;SDS011;7171;50.936;6.764;2022-07-11T08:10:09;2.03;;;1.83;;
14181;SDS011;7171;50.936;6.764;2022-07-11T08:12:39;1.88;;;1.77;;
14181;SDS011;7171;50.936;6.764;2022-07-11T08:15:06;2.03;;;1.70;;
14181;SDS011;7171;50.936;6.764;2022-07-11T08:17:34;2.35;;;2.15;;
14181;SDS011;7171;50.936;6.764;2022-07-11T08:20:00;2.15;;;1.95;;
14181;SDS011;7171;50.936;6.764;2022-07-11T08:22:27;2.00;;;1.80;;
14181;SDS011;7171;50.936;6.764;2022-07-11T08:24:54;1.60;;;1.45;;
14181;SDS011;7171;50.936;6.764;2022-07-11T08:27:21;2.50;;;1.60;;
14181;SDS011;7171;50.936;6.764;2022-07-11T08:29:49;1.50;;;1.40;;
14181;SDS011;7171;50.936;6.764;2022-07-11T08:32:16;1.73;;;1.60;;
14181;SDS011;7171;50.936;6.764;2022-07-11T08:34:44;1.42;;;1.33;;
14181;SDS011;7171;50.936;6.764;2022-07-11T08:37:10;1.50;;;1.40;;
14181;SDS011;7171;50.936;6.764;2022-07-11T08:39:37;1.10;;;1.00;;
14181;SDS011;7171;50.936;6.764;2022-07-11T08:42:04;1.85;;;1.75;;
14181;SDS011;7171;50.936;6.764;2022-07-11T08:44:31;3.20;;;2.05;;
14181;SDS011;7171;50.936;6.764;2022-07-11T08:47:00;1.83;;;1.73;;
14181;SDS011;7171;50.936;6.764;2022-07-11T08:49:28;2.25;;;1.83;;
14181;SDS011;7171;50.936;6.764;2022-07-11T08:51:56;3.63;;;1.95;;
14181;SDS011;7171;50.936;6.764;2022-07-11T08:54:23;1.80;;;1.20;;
14181;SDS011;7171;50.936;6.764;2022-07-11T08:56:50;1.67;;;1.35;;
14181;SDS011;7171;50.936;6.764;2022-07-11T08:59:19;2.45;;;1.40;;
14181;SDS011;7171;50.936;6.764;2022-07-11T09:01:49;1.88;;;1.65;;
14181;SDS011;7171;50.936;6.764;2022-07-11T09:04:23;3.15;;;1.60;;
14181;SDS011;7171;50.936;6.764;2022-07-11T09:06:51;1.98;;;1.55;;
14181;SDS011;7171;50.936;6.764;2022-07-11T09:09:17;1.50;;;1.40;;
14181;SDS011;7171;50.936;6.764;2022-07-11T09:11:48;1.73;;;1.60;;
14181;SDS011;7171;50.936;6.764;2022-07-11T09:14:26;2.17;;;1.45;;
14181;SDS011;7171;50.936;6.764;2022-07-11T09:16:54;1.60;;;1.50;;
14181;SDS011;7171;50.936;6.764;2022-07-11T09:19:24;1.33;;;1.23;;
14181;SDS011;7171;50.936;6.764;2022-07-11T09:21:59;2.67;;;1.20;;
14181;SDS011;7171;50.936;6.764;2022-07-11T09:24:52;1.38;;;1.27;;
14181;SDS011;7171;50.936;6.764;2022-07-11T09:27:44;0.90;;;0.90;;
14181;SDS011;7171;50.936;6.764;2022-07-11T09:30:21;1.52;;;1.27;;
14181;SDS011;7171;50.936;6.764;2022-07-11T09:32:53;1.48;;;1.30;;
14181;SDS011;7171;50.936;6.764;2022-07-11T09:35:23;1.50;;;1.38;;
14181;SDS011;7171;50.936;6.764;2022-07-11T09:37:51;2.28;;;1.20;;
14181;SDS011;7171;50.936;6.764;2022-07-11T09:40:18;0.85;;;0.85;;
14181;SDS011;7171;50.936;6.764;2022-07-11T09:42:47;1.23;;;1.08;;
14181;SDS011;7171;50.936;6.764;2022-07-11T09:45:16;1.00;;;1.00;;
14181;SDS011;7171;50.936;6.764;2022-07-11T09:47:45;1.05;;;1.02;;
14181;SDS011;7171;50.936;6.764;2022-07-11T09:50:12;1.02;;;0.93;;
14181;SDS011;7171;50.936;6.764;2022-07-11T09:52:44;1.50;;;1.40;;
14181;SDS011;7171;50.936;6.764;2022-07-11T09:55:25;1.08;;;1.00;;
14181;SDS011;7171;50.936;6.764;2022-07-11T09:57:52;0.98;;;0.93;;
14181;SDS011;7171;50.936;6.764;2022-07-11T10:00:19;2.10;;;1.20;;
14181;SDS011;7171;50.936;6.764;2022-07-11T10:02:46;1.30;;;1.10;;
14181;SDS011;7171;50.936;6.764;2022-07-11T10:05:14;1.40;;;1.10;;
14181;SDS011;7171;50.936;6.764;2022-07-11T10:07:41;1.13;;;1.02;;
14181;SDS011;7171;50.936;6.764;2022-07-11T10:10:09;1.27;;;1.17;;
14181;SDS011;7171;50.936;6.764;2022-07-11T10:12:36;0.95;;;0.95;;
14181;SDS011;7171;50.936;6.764;2022-07-11T10:15:03;3.08;;;1.25;;
14181;SDS011;7171;50.936;6.764;2022-07-11T10:17:34;1.55;;;1.10;;
14181;SDS011;7171;50.936;6.764;2022-07-11T10:20:09;1.55;;;1.02;;
14181;SDS011;7171;50.936;6.764;2022-07-11T10:22:42;1.40;;;1.30;;
14181;SDS011;7171;50.936;6.764;2022-07-11T10:25:19;1.40;;;1.30;;
14181;SDS011;7171;50.936;6.764;2022-07-11T10:27:58;1.33;;;1.23;;
14181;SDS011;7171;50.936;6.764;2022-07-11T10:30:43;1.23;;;1.13;;
14181;SDS011;7171;50.936;6.764;2022-07-11T10:33:11;2.05;;;1.33;;
14181;SDS011;7171;50.936;6.764;2022-07-11T10:35:39;1.45;;;1.35;;
14181;SDS011;7171;50.936;6.764;2022-07-11T10:38:07;2.08;;;1.30;;
14181;SDS011;7171;50.936;6.764;2022-07-11T10:40:45;2.08;;;1.20;;
14181;SDS011;7171;50.936;6.764;2022-07-11T10:43:14;1.30;;;1.20;;
14181;SDS011;7171;50.936;6.764;2022-07-11T10:45:57;1.42;;;1.30;;
14181;SDS011;7171;50.936;6.764;2022-07-11T10:48:26;1.50;;;1.40;;
14181;SDS011;7171;50.936;6.764;2022-07-11T10:51:03;1.38;;;1.27;;
14181;SDS011;7171;50.936;6.764;2022-07-11T10:53:38;1.58;;;0.90;;
14181;SDS011;7171;50.936;6.764;2022-07-11T10:56:10;1.60;;;1.20;;
14181;SDS011;7171;50.936;6.764;2022-07-11T10:58:54;2.83;;;0.85;;
14181;SDS011;7171;50.936;6.764;2022-07-11T11:01:28;0.90;;;0.90;;
14181;SDS011;7171;50.936;6.764;2022-07-11T11:06:56;2.42;;;1.35;;
14181;SDS011;7171;50.936;6.764;2022-07-11T11:09:36;0.82;;;0.80;;
14181;SDS011;7171;50.936;6.764;2022-07-11T11:12:04;1.10;;;1.10;;
14181;SDS011;7171;50.936;6.764;2022-07-11T11:14:31;1.10;;;0.90;;
14181;SDS011;7171;50.936;6.764;2022-07-11T11:19:58;1.05;;;0.93;;
14181;SDS011;7171;50.936;6.764;2022-07-11T11:22:26;1.25;;;1.00;;
14181;SDS011;7171;50.936;6.764;2022-07-11T11:24:54;0.90;;;0.80;;
14181;SDS011;7171;50.936;6.764;2022-07-11T11:27:24;0.75;;;0.75;;
14181;SDS011;7171;50.936;6.764;2022-07-11T11:29:52;0.80;;;0.80;;
14181;SDS011;7171;50.936;6.764;2022-07-11T11:32:19;0.93;;;0.90;;
14181;SDS011;7171;50.936;6.764;2022-07-11T11:34:47;0.82;;;0.70;;
14181;SDS011;7171;50.936;6.764;2022-07-11T11:37:15;1.08;;;0.80;;
14181;SDS011;7171;50.936;6.764;2022-07-11T11:39:44;0.82;;;0.63;;
14181;SDS011;7171;50.936;6.764;2022-07-11T11:42:14;0.73;;;0.73;;
14181;SDS011;7171;50.936;6.764;2022-07-11T11:44:53;1.25;;;0.98;;
14181;SDS011;7171;50.936;6.764;2022-07-11T11:47:23;0.77;;;0.75;;
14181;SDS011;7171;50.936;6.764;2022-07-11T11:49:50;1.02;;;0.90;;
14181;SDS011;7171;50.936;6.764;2022-07-11T11:52:17;0.80;;;0.80;;
14181;SDS011;7171;50.936;6.764;2022-07-11T11:54:50;0.80;;;0.80;;
14181;SDS011;7171;50.936;6.764;2022-07-11T11:57:21;1.02;;;0.88;;
14181;SDS011;7171;50.936;6.764;2022-07-11T11:59:49;0.98;;;0.90;;
14181;SDS011;7171;50.936;6.764;2022-07-11T12:02:25;1.10;;;1.10;;
14181;SDS011;7171;50.936;6.764;2022-07-11T12:04:56;1.10;;;1.00;;
14181;SDS011;7171;50.936;6.764;2022-07-11T12:07:24;1.23;;;0.98;;
14181;SDS011;7171;50.936;6.764;2022-07-11T12:09:53;0.80;;;0.75;;
14181;SDS011;7171;50.936;6.764;2022-07-11T12:12:25;1.42;;;0.85;;
14181;SDS011;7171;50.936;6.764;2022-07-11T12:15:25;0.65;;;0.65;;
14181;SDS011;7171;50.936;6.764;2022-07-11T12:18:01;0.90;;;0.90;;
14181;SDS011;7171;50.936;6.764;2022-07-11T12:20:36;0.80;;;0.80;;
14181;SDS011;7171;50.936;6.764;2022-07-11T12:23:05;0.50;;;0.50;;
14181;SDS011;7171;50.936;6.764;2022-07-11T12:25:33;0.80;;;0.80;;
14181;SDS011;7171;50.936;6.764;2022-07-11T12:28:00;0.70;;;0.70;;
14181;SDS011;7171;50.936;6.764;2022-07-11T12:30:27;0.65;;;0.65;;
14181;SDS011;7171;50.936;6.764;2022-07-11T12:33:06;0.65;;;0.65;;
14181;SDS011;7171;50.936;6.764;2022-07-11T12:35:34;0.70;;;0.70;;
14181;SDS011;7171;50.936;6.764;2022-07-11T12:38:01;0.60;;;0.60;;
14181;SDS011;7171;50.936;6.764;2022-07-11T12:40:28;0.70;;;0.70;;
14181;SDS011;7171;50.936;6.764;2022-07-11T12:42:55;2.25;;;1.02;;
14181;SDS011;7171;50.936;6.764;2022-07-11T12:45:22;0.75;;;0.75;;
14181;SDS011;7171;50.936;6.764;2022-07-11T12:47:48;0.70;;;0.70;;
14181;SDS011;7171;50.936;6.764;2022-07-11T12:50:20;1.00;;;0.90;;
14181;SDS011;7171;50.936;6.764;2022-07-11T12:52:49;0.80;;;0.80;;
14181;SDS011;7171;50.936;6.764;2022-07-11T12:55:21;1.10;;;1.00;;
14181;SDS011;7171;50.936;6.764;2022-07-11T12:58:03;1.05;;;0.70;;
14181;SDS011;7171;50.936;6.764;2022-07-11T13:00:34;0.93;;;0.93;;
14181;SDS011;7171;50.936;6.764;2022-07-11T13:03:03;0.90;;;0.90;;
14181;SDS011;7171;50.936;6.764;2022-07-11T13:08:26;0.80;;;0.80;;
14181;SDS011;7171;50.936;6.764;2022-07-11T13:11:10;1.10;;;1.00;;
14181;SDS011;7171;50.936;6.764;2022-07-11T13:13:38;0.95;;;0.93;;
14181;SDS011;7171;50.936;6.764;2022-07-11T13:16:05;0.80;;;0.80;;
14181;SDS011;7171;50.936;6.764;2022-07-11T13:18:32;1.10;;;0.77;;
14181;SDS011;7171;50.936;6.764;2022-07-11T13:21:00;0.90;;;0.90;;
14181;SDS011;7171;50.936;6.764;2022-07-11T13:23:29;1.25;;;0.98;;
14181;SDS011;7171;50.936;6.764;2022-07-11T13:25:57;1.33;;;1.23;;
14181;SDS011;7171;50.936;6.764;2022-07-11T13:28:24;1.02;;;1.00;;
14181;SDS011;7171;50.936;6.764;2022-07-11T13:30:51;0.90;;;0.80;;
14181;SDS011;7171;50.936;6.764;2022-07-11T13:33:18;1.20;;;0.70;;
14181;SDS011;7171;50.936;6.764;2022-07-11T13:35:45;0.80;;;0.80;;
14181;SDS011;7171;50.936;6.764;2022-07-11T13:38:16;0.60;;;0.60;;
14181;SDS011;7171;50.936;6.764;2022-07-11T13:40:45;0.70;;;0.70;;
14181;SDS011;7171;50.936;6.764;2022-07-11T13:43:12;0.70;;;0.70;;
14181;SDS011;7171;50.936;6.764;2022-07-11T13:45:40;0.60;;;0.60;;
14181;SDS011;7171;50.936;6.764;2022-07-11T13:48:09;0.68;;;0.68;;
14181;SDS011;7171;50.936;6.764;2022-07-11T13:50:35;0.80;;;0.70;;
14181;SDS011;7171;50.936;6.764;2022-07-11T13:53:02;0.80;;;0.80;;
14181;SDS011;7171;50.936;6.764;2022-07-11T13:55:29;0.70;;;0.70;;
14181;SDS011;7171;50.936;6.764;2022-07-11T13:57:58;0.85;;;0.85;;
14181;SDS011;7171;50.936;6.764;2022-07-11T14:00:26;1.15;;;1.05;;
14181;SDS011;7171;50.936;6.764;2022-07-11T14:02:54;1.23;;;1.13;;
14181;SDS011;7171;50.936;6.764;2022-07-11T14:05:21;1.30;;;1.20;;
14181;SDS011;7171;50.936;6.764;2022-07-11T14:07:48;1.73;;;1.08;;
14181;SDS011;7171;50.936;6.764;2022-07-11T14:10:16;0.90;;;0.90;;
14181;SDS011;7171;50.936;6.764;2022-07-11T14:12:43;0.88;;;0.88;;
14181;SDS011;7171;50.936;6.764;2022-07-11T14:15:11;0.80;;;0.80;;
14181;SDS011;7171;50.936;6.764;2022-07-11T14:17:38;1.63;;;1.52;;
14181;SDS011;7171;50.936;6.764;2022-07-11T14:20:05;1.73;;;1.20;;
14181;SDS011;7171;50.936;6.764;2022-07-11T14:22:32;1.35;;;1.25;;
14181;SDS011;7171;50.936;6.764;2022-07-11T14:24:59;1.70;;;1.60;;
14181;SDS011;7171;50.936;6.764;2022-07-11T14:27:27;1.58;;;1.48;;
14181;SDS011;7171;50.936;6.764;2022-07-11T14:29:53;2.70;;;2.20;;
14181;SDS011;7171;50.936;6.764;2022-07-11T14:32:22;1.58;;;1.48;;
14181;SDS011;7171;50.936;6.764;2022-07-11T14:34:49;1.83;;;1.65;;
14181;SDS011;7171;50.936;6.764;2022-07-11T14:37:16;2.10;;;1.73;;
14181;SDS011;7171;50.936;6.764;2022-07-11T14:39:42;1.60;;;1.38;;
14181;SDS011;7171;50.936;6.764;2022-07-11T14:42:09;1.52;;;1.42;;
14181;SDS011;7171;50.936;6.764;2022-07-11T14:44:37;1.67;;;1.58;;
14181;SDS011;7171;50.936;6.764;2022-07-11T14:47:03;2.35;;;2.15;;
14181;SDS011;7171;50.936;6.764;2022-07-11T14:49:32;2.40;;;2.20;;
14181;SDS011;7171;50.936;6.764;2022-07-11T14:51:58;2.25;;;2.05;;
14181;SDS011;7171;50.936;6.764;2022-07-11T14:54:26;2.28;;;2.08;;
14181;SDS011;7171;50.936;6.764;2022-07-11T14:56:53;3.65;;;2.83;;
14181;SDS011;7171;50.936;6.764;2022-07-11T14:59:19;2.90;;;2.53;;
14181;SDS011;7171;50.936;6.764;2022-07-11T15:01:46;2.38;;;2.17;;
14181;SDS011;7171;50.936;6.764;2022-07-11T15:04:13;2.17;;;1.90;;
14181;SDS011;7171;50.936;6.764;2022-07-11T15:06:43;1.65;;;1.55;;
14181;SDS011;7171;50.936;6.764;2022-07-11T15:09:28;2.25;;;1.90;;
14181;SDS011;7171;50.936;6.764;2022-07-11T15:12:12;2.00;;;1.80;;
14181;SDS011;7171;50.936;6.764;2022-07-11T15:14:49;2.05;;;1.77;;
14181;SDS011;7171;50.936;6.764;2022-07-11T15:17:17;2.13;;;1.92;;